createdAt,value
2023-03-22T00:01:24.110Z,63.92
2023-03-22T00:03:52.671Z,63.84
2023-03-22T00:06:20.422Z,63.69
2023-03-22T00:08:52.401Z,63.64
2023-03-22T00:11:22.793Z,63.14
2023-03-22T00:13:52.671Z,63.14
2023-03-22T00:16:21.918Z,63.22
2023-03-22T00:18:49.712Z,63.36
2023-03-22T00:21:17.646Z,63.66
2023-03-22T00:23:46.296Z,63.72
2023-03-22T00:26:15.003Z,64.13
2023-03-22T00:28:43.576Z,63.60
2023-03-22T00:31:11.761Z,64.08
2023-03-22T00:33:39.530Z,64.20
2023-03-22T00:36:10.390Z,64.36
2023-03-22T00:38:43.751Z,64.27
2023-03-22T00:41:17.813Z,64.54
2023-03-22T00:43:47.422Z,64.68
2023-03-22T00:46:16.575Z,64.68
2023-03-22T00:48:44.440Z,64.69
2023-03-22T00:51:13.427Z,65.07
2023-03-22T00:53:43.260Z,64.88
2023-03-22T00:56:16.124Z,65.05
2023-03-22T00:58:44.361Z,65.05
2023-03-22T01:01:15.155Z,65.11
2023-03-22T01:03:44.032Z,65.04
2023-03-22T01:06:14.639Z,64.98
2023-03-22T01:08:42.506Z,65.00
2023-03-22T01:11:10.358Z,64.98
2023-03-22T01:13:38.488Z,64.99
2023-03-22T01:16:06.895Z,65.23
2023-03-22T01:18:35.775Z,65.26
2023-03-22T01:21:03.745Z,65.44
2023-03-22T01:23:31.958Z,65.66
2023-03-22T01:25:59.944Z,65.39
2023-03-22T01:28:28.748Z,65.34
2023-03-22T01:30:56.594Z,65.57
2023-03-22T01:33:24.131Z,65.53
2023-03-22T01:35:52.065Z,65.58
2023-03-22T01:38:19.970Z,65.64
2023-03-22T01:40:48.645Z,65.99
2023-03-22T01:43:17.864Z,65.91
2023-03-22T01:45:50.398Z,65.93
2023-03-22T01:48:28.436Z,66.12
2023-03-22T01:51:20.605Z,66.42
2023-03-22T01:53:54.798Z,66.70
2023-03-22T01:56:25.685Z,66.96
2023-03-22T01:58:55.248Z,66.49
2023-03-22T02:01:25.765Z,65.02
2023-03-22T02:04:10.272Z,64.31
2023-03-22T02:06:39.205Z,64.23
2023-03-22T02:09:11.116Z,63.82
2023-03-22T02:11:44.021Z,63.68
2023-03-22T02:14:47.252Z,63.82
2023-03-22T02:17:31.798Z,63.93
2023-03-22T02:20:31.910Z,63.86
2023-03-22T02:23:23.986Z,64.72
2023-03-22T02:26:16.002Z,65.45
2023-03-22T02:28:52.461Z,65.02
2023-03-22T02:31:31.118Z,65.08
2023-03-22T02:34:21.365Z,65.87
2023-03-22T02:37:04.149Z,65.82
2023-03-22T02:39:37.631Z,64.67
2023-03-22T02:42:23.881Z,63.79
2023-03-22T02:44:59.647Z,63.09
2023-03-22T02:47:43.586Z,62.76
2023-03-22T02:50:38.204Z,62.16
2023-03-22T02:53:13.054Z,61.62
2023-03-22T02:55:46.632Z,63.76
2023-03-22T02:58:23.633Z,63.46
2023-03-22T03:00:56.627Z,62.01
2023-03-22T03:03:29.359Z,62.45
2023-03-22T03:06:01.603Z,62.84
2023-03-22T03:08:30.983Z,62.81
2023-03-22T03:11:00.056Z,63.36
2023-03-22T03:13:27.870Z,63.39
2023-03-22T03:16:00.318Z,64.40
2023-03-22T03:18:49.792Z,65.21
2023-03-22T03:21:45.455Z,65.96
2023-03-22T03:24:31.763Z,66.08
2023-03-22T03:27:07.290Z,65.09
2023-03-22T03:30:13.743Z,63.82
2023-03-22T03:33:09.541Z,64.23
2023-03-22T03:35:49.194Z,64.96
2023-03-22T03:38:22.519Z,65.17
2023-03-22T03:40:55.958Z,64.04
2023-03-22T03:43:25.700Z,65.08
2023-03-22T03:45:54.990Z,64.46
2023-03-22T03:48:29.278Z,63.17
2023-03-22T03:50:58.438Z,62.64
2023-03-22T03:53:26.079Z,63.82
2023-03-22T03:55:53.699Z,64.98
2023-03-22T03:58:21.810Z,64.80
2023-03-22T04:00:50.363Z,64.55
2023-03-22T04:03:18.816Z,63.42
2023-03-22T04:05:46.788Z,62.66
2023-03-22T04:08:14.652Z,62.01
2023-03-22T04:10:42.729Z,61.77
2023-03-22T04:13:10.436Z,62.14
2023-03-22T04:15:38.153Z,62.15
2023-03-22T04:18:07.219Z,61.34
2023-03-22T04:20:34.745Z,61.12
2023-03-22T04:23:02.361Z,61.00
2023-03-22T04:25:30.286Z,61.50
2023-03-22T04:28:00.587Z,63.88
2023-03-22T04:30:28.643Z,63.65
2023-03-22T04:32:58.325Z,62.70
2023-03-22T04:35:26.561Z,62.25
2023-03-22T04:37:54.421Z,62.12
2023-03-22T04:40:22.401Z,61.89
2023-03-22T04:42:51.478Z,62.15
2023-03-22T04:45:19.100Z,63.55
2023-03-22T04:47:47.627Z,63.98
2023-03-22T04:50:16.154Z,64.42
2023-03-22T04:52:44.117Z,63.46
2023-03-22T04:55:12.024Z,63.01
2023-03-22T04:57:39.561Z,62.51
2023-03-22T05:00:10.300Z,63.36
2023-03-22T05:02:41.798Z,64.36
2023-03-22T05:05:10.697Z,64.71
2023-03-22T05:07:39.317Z,64.29
2023-03-22T05:10:08.028Z,64.30
2023-03-22T05:12:35.704Z,64.13
2023-03-22T05:15:06.139Z,63.85
2023-03-22T05:17:33.938Z,64.03
2023-03-22T05:20:09.257Z,64.12
2023-03-22T05:22:41.212Z,64.13
2023-03-22T05:25:10.843Z,65.38
2023-03-22T05:27:39.237Z,65.08
2023-03-22T05:30:08.090Z,65.33
2023-03-22T05:32:37.702Z,65.50
2023-03-22T05:35:06.990Z,65.25
2023-03-22T05:37:34.866Z,65.22
2023-03-22T05:40:05.348Z,64.92
2023-03-22T05:42:33.593Z,65.27
2023-03-22T05:45:01.503Z,65.19
2023-03-22T05:47:29.398Z,64.67
2023-03-22T05:49:57.477Z,65.19
2023-03-22T05:52:25.570Z,64.95
2023-03-22T05:54:53.328Z,65.27
2023-03-22T05:57:21.163Z,65.18
2023-03-22T05:59:48.658Z,64.82
2023-03-22T06:02:17.484Z,65.12
2023-03-22T06:04:45.383Z,65.24
2023-03-22T06:07:13.930Z,65.14
2023-03-22T06:09:41.944Z,64.99
2023-03-22T06:12:10.312Z,65.04
2023-03-22T06:14:38.126Z,65.12
2023-03-22T06:17:06.217Z,64.16
2023-03-22T06:19:34.121Z,64.37
2023-03-22T06:22:02.426Z,63.89
2023-03-22T06:24:31.996Z,63.22
2023-03-22T06:27:00.368Z,62.71
2023-03-22T06:29:28.493Z,62.57
2023-03-22T06:31:56.998Z,63.17
2023-03-22T06:34:24.984Z,62.58
2023-03-22T06:36:53.541Z,62.41
2023-03-22T06:39:22.922Z,61.81
2023-03-22T06:41:51.708Z,61.71
2023-03-22T06:44:19.482Z,61.50
2023-03-22T06:46:53.417Z,61.18
2023-03-22T06:49:21.995Z,60.40
2023-03-22T06:51:51.097Z,60.35
2023-03-22T06:54:19.492Z,59.76
2023-03-22T06:56:47.037Z,59.63
2023-03-22T06:59:14.657Z,59.59
2023-03-22T07:01:42.563Z,59.22
2023-03-22T07:04:11.154Z,59.19
2023-03-22T07:06:38.982Z,59.35
2023-03-22T07:09:07.094Z,59.23
2023-03-22T07:11:34.835Z,59.14
2023-03-22T07:14:02.788Z,59.33
2023-03-22T07:16:32.468Z,58.74
2023-03-22T07:19:01.467Z,58.48
2023-03-22T07:21:29.688Z,58.77
2023-03-22T07:23:58.268Z,58.58
2023-03-22T07:26:27.721Z,58.63
2023-03-22T07:28:56.069Z,58.58
2023-03-22T07:31:26.750Z,58.62
2023-03-22T07:33:56.201Z,58.43
2023-03-22T07:36:25.779Z,58.38
2023-03-22T07:38:53.757Z,57.93
2023-03-22T07:41:24.088Z,57.89
2023-03-22T07:43:56.833Z,57.68
2023-03-22T07:46:30.397Z,57.24
2023-03-22T07:48:58.871Z,56.31
2023-03-22T07:51:27.941Z,56.80
2023-03-22T07:53:55.808Z,56.38
2023-03-22T07:56:23.494Z,56.50
2023-03-22T07:58:51.026Z,56.17
2023-03-22T08:01:18.989Z,55.62
2023-03-22T08:03:47.641Z,55.55
2023-03-22T08:06:18.921Z,55.50
2023-03-22T08:08:47.557Z,55.75
2023-03-22T08:11:15.626Z,55.80
2023-03-22T08:13:43.230Z,54.26
2023-03-22T08:16:11.604Z,53.74
2023-03-22T08:18:39.256Z,53.83
2023-03-22T08:21:07.431Z,52.94
2023-03-22T08:23:41.757Z,51.17
2023-03-22T08:26:14.177Z,51.26
2023-03-22T08:28:42.149Z,50.71
2023-03-22T08:31:15.536Z,50.36
2023-03-22T08:33:45.221Z,50.08
2023-03-22T08:36:17.006Z,50.31
2023-03-22T08:38:45.459Z,49.47
2023-03-22T08:41:13.889Z,49.90
2023-03-22T08:43:42.580Z,48.91
2023-03-22T08:46:10.560Z,48.69
2023-03-22T08:48:38.579Z,48.98
2023-03-22T08:51:06.817Z,48.75
2023-03-22T08:53:35.594Z,48.55
2023-03-22T08:56:04.829Z,48.75
2023-03-22T08:58:33.674Z,48.14
2023-03-22T09:01:06.090Z,47.89
2023-03-22T09:03:33.785Z,47.90
2023-03-22T09:06:01.339Z,47.65
2023-03-22T09:08:30.090Z,46.38
2023-03-22T09:10:58.159Z,45.47
2023-03-22T09:13:26.107Z,45.61
2023-03-22T09:15:54.451Z,45.08
2023-03-22T09:18:24.295Z,45.72
2023-03-22T09:20:52.857Z,45.30
2023-03-22T09:23:21.200Z,44.54
2023-03-22T09:25:49.152Z,44.70
2023-03-22T09:28:17.194Z,44.89
2023-03-22T09:30:46.618Z,45.04
2023-03-22T09:33:14.744Z,45.01
2023-03-22T09:35:43.837Z,44.31
2023-03-22T09:38:12.646Z,44.22
2023-03-22T09:40:52.171Z,43.77
2023-03-22T09:43:20.955Z,43.87
2023-03-22T09:45:51.225Z,44.14
2023-03-22T09:48:24.296Z,42.39
2023-03-22T09:50:54.098Z,42.29
2023-03-22T09:53:23.830Z,42.73
2023-03-22T09:56:02.084Z,42.14
2023-03-22T09:58:50.507Z,43.11
2023-03-22T10:01:48.718Z,43.42
2023-03-22T10:04:42.839Z,43.04
2023-03-22T10:07:37.424Z,43.46
2023-03-22T10:10:10.195Z,41.18
2023-03-22T10:12:50.217Z,40.95
2023-03-22T10:15:27.245Z,40.73
2023-03-22T10:17:57.841Z,40.81
2023-03-22T10:20:47.446Z,40.43
2023-03-22T10:23:20.905Z,40.05
2023-03-22T10:25:51.451Z,39.71
2023-03-22T10:28:30.310Z,38.49
2023-03-22T10:30:58.761Z,36.32
2023-03-22T10:33:52.703Z,34.58
2023-03-22T10:36:24.013Z,34.66
2023-03-22T10:39:04.153Z,34.94
2023-03-22T10:41:33.736Z,34.84
2023-03-22T10:44:03.161Z,36.42
2023-03-22T10:46:39.537Z,36.39
2023-03-22T10:49:13.394Z,36.06
2023-03-22T10:51:47.793Z,35.45
2023-03-22T10:54:18.870Z,35.22
2023-03-22T10:56:46.384Z,35.04
2023-03-22T10:59:47.404Z,34.91
2023-03-22T11:02:21.459Z,34.21
2023-03-22T11:04:58.163Z,34.84
2023-03-22T11:07:38.203Z,34.81
2023-03-22T11:10:09.282Z,32.29
2023-03-22T11:12:46.974Z,34.86
2023-03-22T11:15:20.301Z,33.62
2023-03-22T11:17:48.525Z,33.58
2023-03-22T11:20:19.407Z,33.29
2023-03-22T11:22:48.469Z,32.35
2023-03-22T11:25:22.077Z,31.36
2023-03-22T11:28:06.163Z,31.55
2023-03-22T11:30:34.462Z,31.11
2023-03-22T11:33:08.096Z,30.98
2023-03-22T11:35:38.303Z,30.64
2023-03-22T11:38:06.262Z,30.83
2023-03-22T11:40:55.117Z,30.49
2023-03-22T11:43:26.757Z,30.55
2023-03-22T11:45:57.565Z,31.09
2023-03-22T11:48:29.172Z,29.55
2023-03-22T11:51:06.398Z,29.96
2023-03-22T11:53:37.262Z,29.89
2023-03-22T11:56:07.683Z,30.19
2023-03-22T11:58:38.234Z,30.33
2023-03-22T12:01:07.073Z,30.82
2023-03-22T12:03:39.535Z,29.89
2023-03-22T12:06:23.005Z,29.41
2023-03-22T12:09:04.234Z,29.80
2023-03-22T12:11:42.006Z,29.08
2023-03-22T12:14:35.789Z,29.07
2023-03-22T12:17:27.933Z,29.27
2023-03-22T12:20:06.272Z,29.21
2023-03-22T12:22:41.846Z,28.97
2023-03-22T12:25:19.322Z,30.28
2023-03-22T12:28:00.697Z,29.16
2023-03-22T12:30:33.961Z,29.38
2023-03-22T12:33:16.497Z,29.39
2023-03-22T12:35:46.814Z,29.52
2023-03-22T12:38:28.216Z,29.88
2023-03-22T12:41:00.558Z,29.30
2023-03-22T12:43:44.693Z,30.57
2023-03-22T12:46:21.431Z,29.49
2023-03-22T12:48:54.020Z,28.93
2023-03-22T12:51:21.891Z,28.95
2023-03-22T12:53:53.271Z,29.28
2023-03-22T12:56:30.050Z,28.42
2023-03-22T12:59:04.991Z,29.10
2023-03-22T13:02:30.148Z,28.16
2023-03-22T13:05:02.187Z,27.87
2023-03-22T13:07:47.691Z,28.22
2023-03-22T13:10:30.586Z,28.49
2023-03-22T13:13:22.159Z,28.23
2023-03-22T13:15:58.010Z,28.23
2023-03-22T13:18:43.294Z,28.26
2023-03-22T13:21:17.599Z,28.95
2023-03-22T13:24:09.939Z,29.66
2023-03-22T13:26:55.305Z,30.84
2023-03-22T13:29:44.750Z,29.92
2023-03-22T13:32:33.803Z,30.81
2023-03-22T13:35:01.695Z,31.04
2023-03-22T13:37:35.991Z,31.14
2023-03-22T13:40:43.096Z,31.11
2023-03-22T13:43:16.732Z,31.64
2023-03-22T13:46:17.902Z,31.89
2023-03-22T13:48:49.596Z,32.38
2023-03-22T13:51:23.517Z,32.21
2023-03-22T13:54:00.556Z,33.00
2023-03-22T13:56:52.398Z,32.84
2023-03-22T13:59:33.737Z,32.82
2023-03-22T14:02:12.009Z,32.92
2023-03-22T14:04:44.858Z,33.49
2023-03-22T14:07:15.260Z,33.71
2023-03-22T14:09:49.622Z,33.42
2023-03-22T14:12:31.347Z,33.00
2023-03-22T14:15:04.659Z,33.08
2023-03-22T14:18:06.360Z,32.92
2023-03-22T14:20:37.098Z,33.22
